Time;durP1;ratioP1;P1;durP2;ratioP2;P2;SDS_P1;SDS_P2;PMS_P1;PMS_P2;Temp;Humidity;BMP_temperature;BMP_pressure;BME280_temperature;BME280_humidity;BME280_pressure;Samples;Min_cycle;Max_cycle;Signal;HPM_P1;HPM_P2
2022/10/15 00:01:19;;;;;;;35.20;24.38;;;;;;;11.11;100.00;100692.84;5041686;28;20666;-57
2022/10/15 00:03:44;;;;;;;37.40;24.55;;;;;;;11.09;100.00;100694.00;5028054;28;20063;-57
2022/10/15 00:06:13;;;;;;;34.40;24.40;;;;;;;11.02;100.00;100693.84;5024980;28;20492;-56
2022/10/15 00:08:39;;;;;;;37.17;23.95;;;;;;;11.02;100.00;100699.16;5024703;28;20038;-59
2022/10/15 00:11:07;;;;;;;34.70;25.42;;;;;;;11.02;100.00;100699.16;5039512;28;20098;-57
2022/10/15 00:13:33;;;;;;;35.00;24.85;;;;;;;11.04;100.00;100702.47;5024292;28;20033;-58
2022/10/15 00:15:59;;;;;;;38.28;24.48;;;;;;;11.02;100.00;100699.16;5037510;28;20040;-57
2022/10/15 00:18:24;;;;;;;38.40;26.00;;;;;;;11.03;100.00;100691.03;5031438;28;20780;-59
2022/10/15 00:20:50;;;;;;;36.10;25.33;;;;;;;11.06;100.00;100700.50;5043632;28;20028;-60
2022/10/15 00:23:15;;;;;;;37.42;25.92;;;;;;;11.10;100.00;100704.44;5036831;28;20041;-57
2022/10/15 00:25:41;;;;;;;37.08;25.65;;;;;;;11.11;100.00;100700.78;5027764;28;20037;-57
2022/10/15 00:28:06;;;;;;;36.20;24.67;;;;;;;11.12;100.00;100705.13;5036723;28;20038;-57
2022/10/15 00:30:32;;;;;;;34.45;23.58;;;;;;;11.13;100.00;100700.63;5032712;28;20061;-59
2022/10/15 00:32:57;;;;;;;47.50;24.92;;;;;;;11.13;100.00;100698.81;5033281;28;20033;-57
2022/10/15 00:35:22;;;;;;;35.60;24.45;;;;;;;11.16;100.00;100700.31;5040352;28;20427;-57
2022/10/15 00:37:47;;;;;;;36.20;25.70;;;;;;;11.20;100.00;100701.59;5025498;28;20029;-60
2022/10/15 00:40:15;;;;;;;39.53;27.05;;;;;;;11.21;100.00;100697.13;5037825;28;20029;-60
2022/10/15 00:42:41;;;;;;;37.17;25.63;;;;;;;11.23;100.00;100695.13;5042736;28;20040;-58
2022/10/15 00:45:12;;;;;;;39.95;27.30;;;;;;;11.26;100.00;100700.94;5028251;28;20032;-57
2022/10/15 00:47:40;;;;;;;40.42;26.70;;;;;;;11.24;100.00;100696.78;5035534;28;20025;-58
2022/10/15 00:50:07;;;;;;;40.90;27.77;;;;;;;11.26;100.00;100705.44;5042873;28;20025;-57
2022/10/15 00:52:48;;;;;;;37.75;27.55;;;;;;;11.29;100.00;100699.75;5038418;28;20151;-59
2022/10/15 00:55:21;;;;;;;38.45;27.45;;;;;;;11.31;100.00;100708.41;5040660;28;20041;-60
2022/10/15 00:57:49;;;;;;;38.15;27.30;;;;;;;11.30;100.00;100706.75;5035935;28;20026;-57
2022/10/15 01:00:15;;;;;;;38.75;27.08;;;;;;;11.33;100.00;100708.22;5037344;28;20025;-58
2022/10/15 01:02:42;;;;;;;35.45;25.85;;;;;;;11.34;100.00;100708.06;5038711;28;20610;-56
2022/10/15 01:05:08;;;;;;;36.70;26.90;;;;;;;11.34;100.00;100702.75;5035241;28;20094;-57
2022/10/15 01:07:33;;;;;;;37.92;27.25;;;;;;;11.34;100.00;100704.59;5041666;28;20036;-59
2022/10/15 01:10:00;;;;;;;35.55;26.20;;;;;;;11.34;100.00;100697.44;5039362;28;20114;-57
2022/10/15 01:12:31;;;;;;;35.70;26.85;;;;;;;11.36;100.00;100698.13;5035414;28;20488;-57
2022/10/15 01:15:18;;;;;;;34.78;26.75;;;;;;;11.37;100.00;100699.75;5041400;28;20029;-57
2022/10/15 01:17:49;;;;;;;39.10;27.10;;;;;;;11.34;100.00;100689.47;5034079;28;20055;-57
2022/10/15 01:20:39;;;;;;;34.90;27.15;;;;;;;11.38;100.00;100685.50;5043244;28;20033;-57
2022/10/15 01:23:35;;;;;;;37.00;27.40;;;;;;;11.39;100.00;100684.47;5029046;28;20448;-57
2022/10/15 01:26:14;;;;;;;35.30;26.85;;;;;;;11.40;100.00;100675.50;5030195;28;20044;-57
2022/10/15 01:28:42;;;;;;;36.25;27.33;;;;;;;11.42;100.00;100670.03;5045777;28;20063;-59
2022/10/15 01:31:19;;;;;;;36.80;27.85;;;;;;;11.43;100.00;100669.03;5036414;28;20033;-57
2022/10/15 01:33:56;;;;;;;33.72;27.40;;;;;;;11.45;100.00;100661.72;5033754;28;20041;-59
2022/10/15 01:36:36;;;;;;;36.70;27.83;;;;;;;11.46;100.00;100662.56;5033707;28;20048;-59
2022/10/15 01:39:11;;;;;;;37.05;28.08;;;;;;;11.46;100.00;100657.25;5044975;28;20128;-59
2022/10/15 01:41:43;;;;;;;33.20;27.20;;;;;;;11.41;100.00;100647.97;5043152;28;20105;-56
2022/10/15 01:44:19;;;;;;;35.75;28.55;;;;;;;11.50;100.00;100658.56;5043103;28;20041;-58
2022/10/15 01:46:48;;;;;;;34.38;27.25;;;;;;;11.50;100.00;100664.69;5042582;28;20030;-58
2022/10/15 01:49:20;;;;;;;36.78;27.80;;;;;;;11.52;100.00;100667.19;5042550;28;20757;-57
2022/10/15 01:51:48;;;;;;;34.83;27.48;;;;;;;11.51;100.00;100660.22;5043163;28;20472;-57
2022/10/15 01:54:16;;;;;;;35.25;27.58;;;;;;;11.53;100.00;100660.88;5045602;28;20090;-57
2022/10/15 01:56:48;;;;;;;36.70;27.52;;;;;;;11.54;100.00;100659.84;5044672;28;20461;-59
2022/10/15 01:59:16;;;;;;;34.45;27.02;;;;;;;11.53;100.00;100652.91;5045350;28;20524;-59
2022/10/15 02:01:42;;;;;;;32.80;26.55;;;;;;;11.54;100.00;100651.88;5044800;28;20045;-59
2022/10/15 02:04:37;;;;;;;32.35;26.63;;;;;;;11.58;100.00;100647.91;5035494;28;20025;-58
2022/10/15 02:07:39;;;;;;;34.35;26.70;;;;;;;11.60;100.00;100648.53;5036877;28;20071;-60
2022/10/15 02:10:13;;;;;;;35.13;26.77;;;;;;;11.59;100.00;100646.91;5033075;28;20106;-59
2022/10/15 02:13:02;;;;;;;32.67;26.13;;;;;;;11.60;100.00;100647.72;5035386;28;20127;-60
2022/10/15 02:16:04;;;;;;;34.38;26.35;;;;;;;11.61;100.00;100638.75;5044008;28;20037;-58
2022/10/15 02:18:41;;;;;;;33.83;25.88;;;;;;;11.59;100.00;100646.09;5035137;28;20024;-57
2022/10/15 02:21:17;;;;;;;34.42;26.40;;;;;;;11.56;100.00;100633.97;5032096;28;20174;-59
2022/10/15 02:23:51;;;;;;;37.72;27.27;;;;;;;11.58;100.00;100634.63;5035779;28;20036;-59
2022/10/15 02:26:18;;;;;;;35.25;26.90;;;;;;;11.56;100.00;100631.31;5044774;28;20049;-59
2022/10/15 02:28:52;;;;;;;35.20;27.13;;;;;;;11.57;100.00;100632.97;5036224;28;20090;-59
2022/10/15 02:31:20;;;;;;;38.13;27.65;;;;;;;11.59;100.00;100630.97;5044974;28;20041;-59
2022/10/15 02:33:48;;;;;;;37.30;27.95;;;;;;;11.57;100.00;100628.50;5030727;28;20047;-58
2022/10/15 02:36:15;;;;;;;35.95;27.20;;;;;;;11.59;100.00;100625.66;5029102;28;20041;-57
2022/10/15 02:38:43;;;;;;;36.83;27.73;;;;;;;11.56;100.00;100616.19;5039731;28;20033;-57
2022/10/15 02:41:08;;;;;;;38.25;28.15;;;;;;;11.60;100.00;100614.00;5029222;28;20389;-58
2022/10/15 02:43:36;;;;;;;37.15;28.25;;;;;;;11.61;100.00;100609.53;5030037;28;20049;-58
2022/10/15 02:46:01;;;;;;;37.55;27.42;;;;;;;11.60;100.00;100600.75;5025903;28;20543;-59
2022/10/15 02:48:26;;;;;;;36.15;27.42;;;;;;;11.61;100.00;100601.56;5028640;28;20064;-58
2022/10/15 02:50:52;;;;;;;35.42;27.05;;;;;;;11.62;100.00;100598.75;5042408;28;20032;-58
2022/10/15 02:53:17;;;;;;;36.78;28.75;;;;;;;11.62;100.00;100592.59;5033056;28;20123;-59
2022/10/15 02:55:42;;;;;;;41.75;29.45;;;;;;;11.59;100.00;100588.47;5037015;28;20108;-58
2022/10/15 02:58:08;;;;;;;38.63;28.55;;;;;;;11.60;100.00;100590.13;5038165;28;20044;-58
2022/10/15 03:00:33;;;;;;;37.92;29.00;;;;;;;11.61;100.00;100594.44;5029697;28;20032;-57
2022/10/15 03:02:58;;;;;;;40.38;29.20;;;;;;;11.62;100.00;100582.81;5038389;28;20070;-59
2022/10/15 03:05:23;;;;;;;38.97;28.73;;;;;;;11.62;100.00;100582.81;5034116;28;20032;-58
2022/10/15 03:07:49;;;;;;;39.35;28.90;;;;;;;11.64;100.00;100586.13;5032496;28;20545;-58
2022/10/15 03:10:14;;;;;;;39.67;29.30;;;;;;;11.64;100.00;100580.81;5044707;28;20032;-57
2022/10/15 03:12:39;;;;;;;38.83;27.92;;;;;;;11.63;100.00;100578.31;5043872;28;20434;-58
2022/10/15 03:15:06;;;;;;;36.35;28.27;;;;;;;11.62;100.00;100574.84;5043091;28;20090;-58
2022/10/15 03:17:32;;;;;;;40.35;28.70;;;;;;;11.64;100.00;100580.00;5031407;28;20108;-59
2022/10/15 03:19:57;;;;;;;37.03;27.52;;;;;;;11.63;100.00;100584.47;5033878;28;20112;-58
2022/10/15 03:22:22;;;;;;;37.70;28.90;;;;;;;11.64;100.00;100580.81;5043852;28;20480;-58
2022/10/15 03:24:47;;;;;;;40.55;28.70;;;;;;;11.65;100.00;100590.41;5026295;28;20033;-56
2022/10/15 03:27:13;;;;;;;39.58;27.60;;;;;;;11.64;100.00;100586.13;5032043;28;20048;-58
2022/10/15 03:29:38;;;;;;;40.10;27.52;;;;;;;11.64;100.00;100580.81;5030132;28;20090;-59
2022/10/15 03:32:03;;;;;;;39.75;27.88;;;;;;;11.64;100.00;100586.13;5041061;28;20111;-57
2022/10/15 03:34:29;;;;;;;39.88;28.40;;;;;;;11.65;100.00;100581.66;5028276;28;20496;-59
2022/10/15 03:36:54;;;;;;;41.33;28.38;;;;;;;11.65;100.00;100585.09;5027333;28;20045;-58
2022/10/15 03:39:19;;;;;;;41.70;29.33;;;;;;;11.66;100.00;100583.28;5031373;28;20032;-56
2022/10/15 03:41:45;;;;;;;40.08;27.15;;;;;;;11.67;100.00;100580.47;5034632;28;20048;-58
2022/10/15 03:44:10;;;;;;;37.15;27.02;;;;;;;11.66;100.00;100578.81;5030484;28;20040;-56
2022/10/15 03:46:35;;;;;;;39.97;28.27;;;;;;;11.68;100.00;100574.16;5036977;28;20033;-58
2022/10/15 03:49:01;;;;;;;40.30;27.88;;;;;;;11.68;100.00;100570.66;5031680;28;20032;-57
2022/10/15 03:51:26;;;;;;;43.40;28.25;;;;;;;11.67;100.00;100569.84;5041369;28;20035;-58
2022/10/15 03:53:52;;;;;;;41.53;27.25;;;;;;;11.69;100.00;100567.00;5031578;28;20031;-58
2022/10/15 03:56:18;;;;;;;41.08;27.80;;;;;;;11.67;100.00;100561.88;5037606;28;20116;-56
2022/10/15 03:58:43;;;;;;;41.67;28.13;;;;;;;11.68;100.00;100570.66;5031600;28;20040;-57
2022/10/15 04:01:15;;;;;;;41.05;27.70;;;;;;;11.66;100.00;100567.34;5034756;28;21020;-57
2022/10/15 04:03:41;;;;;;;42.25;28.30;;;;;;;11.67;100.00;100577.81;5029084;28;20123;-60
2022/10/15 04:06:06;;;;;;;43.92;27.45;;;;;;;11.66;100.00;100573.50;5033266;28;20032;-59
2022/10/15 04:08:33;;;;;;;42.05;28.08;;;;;;;11.67;100.00;100569.84;5030156;28;20393;-59
2022/10/15 04:10:58;;;;;;;43.50;28.85;;;;;;;11.67;100.00;100580.47;5040102;28;20037;-57
2022/10/15 04:13:27;;;;;;;44.50;28.70;;;;;;;11.68;100.00;100575.97;5034402;28;20021;-59
2022/10/15 04:15:53;;;;;;;43.33;28.95;;;;;;;11.67;100.00;100575.16;5025352;28;20033;-60
2022/10/15 04:18:20;;;;;;;48.55;29.27;;;;;;;11.69;100.00;100574.97;5025005;28;20092;-58
2022/10/15 04:20:46;;;;;;;48.53;29.83;;;;;;;11.69;100.00;100567.84;5039696;28;20033;-57
2022/10/15 04:23:11;;;;;;;47.90;30.45;;;;;;;11.70;100.00;100582.75;5027816;28;20485;-58
2022/10/15 04:25:37;;;;;;;48.53;30.63;;;;;;;11.71;100.00;100581.75;5025211;28;20036;-57
2022/10/15 04:28:02;;;;;;;50.03;31.67;;;;;;;11.75;100.00;100592.03;5037772;28;20033;-57
2022/10/15 04:30:28;;;;;;;51.95;32.17;;;;;;;11.76;100.00;100588.38;5034230;28;20035;-57
2022/10/15 04:32:53;;;;;;;52.38;32.22;;;;;;;11.76;100.00;100580.41;5025393;28;20041;-57
2022/10/15 04:35:19;;;;;;;53.30;32.15;;;;;;;11.79;100.00;100577.41;5036080;28;20036;-57
2022/10/15 04:37:44;;;;;;;51.90;31.65;;;;;;;11.80;100.00;100573.75;5017825;28;20037;-58
2022/10/15 04:40:11;;;;;;;53.20;32.72;;;;;;;11.80;100.00;100568.44;5031464;28;20025;-57
2022/10/15 04:42:36;;;;;;;53.53;32.45;;;;;;;11.82;100.00;100571.75;5040375;28;20412;-59
2022/10/15 04:45:02;;;;;;;54.47;33.13;;;;;;;11.82;100.00;100567.25;5017199;28;20018;-57
2022/10/15 04:47:27;;;;;;;54.30;31.15;;;;;;;11.83;100.00;100566.25;5024648;28;20528;-59
2022/10/15 04:49:52;;;;;;;53.10;31.85;;;;;;;11.86;100.00;100577.53;5027700;28;20033;-57
2022/10/15 04:52:18;;;;;;;55.17;33.22;;;;;;;11.84;100.00;100567.06;5023426;28;20038;-57
2022/10/15 04:54:43;;;;;;;51.03;31.95;;;;;;;11.88;100.00;100575.53;5021095;28;20037;-57
2022/10/15 04:57:10;;;;;;;51.85;32.35;;;;;;;11.88;100.00;100565.72;5022734;28;20048;-59
2022/10/15 04:59:35;;;;;;;51.22;31.67;;;;;;;11.88;100.00;100563.06;5024159;28;20037;-59
2022/10/15 05:02:00;;;;;;;52.72;32.40;;;;;;;11.89;100.00;100570.03;5022382;28;20510;-58
2022/10/15 05:04:25;;;;;;;52.33;31.65;;;;;;;11.89;100.00;100567.38;5025859;28;20280;-57
2022/10/15 05:06:51;;;;;;;55.13;32.85;;;;;;;11.90;100.00;100569.00;5024658;28;20361;-57
2022/10/15 05:09:16;;;;;;;52.08;31.65;;;;;;;11.92;100.00;100564.38;5026851;28;20034;-59
2022/10/15 05:11:41;;;;;;;51.53;30.90;;;;;;;11.92;100.00;100572.34;5025756;28;20033;-57
2022/10/15 05:14:07;;;;;;;50.60;31.63;;;;;;;11.91;100.00;100570.69;5025331;28;20044;-57
2022/10/15 05:16:33;;;;;;;47.40;30.20;;;;;;;11.91;100.00;100581.31;5020499;28;20033;-58
2022/10/15 05:19:01;;;;;;;47.60;29.55;;;;;;;11.90;100.00;100582.28;5026082;28;20095;-57
2022/10/15 05:21:27;;;;;;;47.85;28.75;;;;;;;11.88;100.00;100579.00;5029601;28;20033;-57
2022/10/15 05:23:53;;;;;;;44.00;28.58;;;;;;;11.87;100.00;100577.34;5024739;28;20029;-59
2022/10/15 05:26:21;;;;;;;46.35;28.60;;;;;;;11.85;100.00;100584.69;5028253;28;20505;-58
2022/10/15 05:28:47;;;;;;;45.00;28.77;;;;;;;11.86;100.00;100581.00;5027296;28;20168;-56
2022/10/15 05:31:16;;;;;;;45.70;28.60;;;;;;;11.87;100.00;100580.00;5029579;28;20053;-57
2022/10/15 05:33:42;;;;;;;43.13;27.75;;;;;;;11.87;100.00;100569.38;5028457;28;20037;-57
2022/10/15 05:36:18;;;;;;;44.28;28.35;;;;;;;11.82;100.00;100571.75;5026602;28;20477;-58
2022/10/15 05:38:46;;;;;;;45.38;28.38;;;;;;;11.87;100.00;100580.00;5023005;28;20029;-57
2022/10/15 05:41:12;;;;;;;48.08;28.98;;;;;;;11.87;100.00;100580.00;5025221;28;20036;-58
2022/10/15 05:43:37;;;;;;;43.95;28.15;;;;;;;11.88;100.00;100588.81;5028726;28;20072;-58
2022/10/15 05:46:03;;;;;;;44.58;27.92;;;;;;;11.87;100.00;100573.84;5025229;28;20029;-56
2022/10/15 05:48:28;;;;;;;45.05;28.17;;;;;;;11.86;100.00;100566.91;5031087;28;20041;-57
2022/10/15 05:50:59;;;;;;;47.80;29.20;;;;;;;11.87;100.00;100564.06;5026706;28;20707;-59
2022/10/15 05:53:25;;;;;;;49.10;29.02;;;;;;;11.88;100.00;100568.38;5022894;28;20439;-56
2022/10/15 05:55:52;;;;;;;46.75;28.55;;;;;;;11.86;100.00;100567.72;5035311;28;20118;-58
2022/10/15 05:58:17;;;;;;;46.03;29.20;;;;;;;11.88;100.00;100571.03;5023567;28;20029;-57
2022/10/15 06:00:43;;;;;;;46.63;28.88;;;;;;;11.89;100.00;100575.34;5041097;28;20043;-57
2022/10/15 06:03:12;;;;;;;46.92;28.50;;;;;;;11.87;100.00;100566.72;5026261;28;20052;-56
2022/10/15 06:05:37;;;;;;;44.70;28.52;;;;;;;11.88;100.00;100571.03;5026443;28;20022;-57
2022/10/15 06:08:03;;;;;;;46.53;29.20;;;;;;;11.89;100.00;100572.69;5023820;28;20440;-57
2022/10/15 06:10:28;;;;;;;50.22;28.60;;;;;;;11.88;100.00;100576.34;5036931;28;20688;-59
2022/10/15 06:12:54;;;;;;;45.58;27.95;;;;;;;11.87;100.00;100574.69;5035887;28;20083;-57
2022/10/15 06:15:20;;;;;;;47.10;29.65;;;;;;;11.88;100.00;100570.22;5035451;28;20456;-59
2022/10/15 06:17:45;;;;;;;44.03;27.15;;;;;;;11.87;100.00;100572.03;5026421;28;20044;-58
2022/10/15 06:20:11;;;;;;;44.30;27.95;;;;;;;11.89;100.00;100577.19;5034631;28;20167;-56
2022/10/15 06:22:36;;;;;;;46.28;29.58;;;;;;;11.88;100.00;100576.34;5033418;28;20036;-58
2022/10/15 06:25:02;;;;;;;48.65;29.13;;;;;;;11.90;100.00;100573.53;5021915;28;20550;-57
2022/10/15 06:27:27;;;;;;;48.83;29.60;;;;;;;11.91;100.00;100576.00;5024838;28;20512;-57
2022/10/15 06:29:52;;;;;;;46.45;28.95;;;;;;;11.90;100.00;100574.31;5039197;28;20823;-57
2022/10/15 06:32:18;;;;;;;59.15;30.63;;;;;;;11.90;100.00;100563.69;5031973;28;20037;-57
2022/10/15 06:34:43;;;;;;;47.03;30.17;;;;;;;11.91;100.00;100576.00;5020413;28;20690;-59
2022/10/15 06:37:08;;;;;;;47.38;30.05;;;;;;;11.91;100.00;100578.66;5021221;28;20059;-58
2022/10/15 06:39:33;;;;;;;50.38;31.80;;;;;;;11.90;100.00;100569.00;5028260;28;20029;-57
2022/10/15 06:41:59;;;;;;;52.10;31.55;;;;;;;11.90;100.00;100569.00;5037908;28;20037;-59
2022/10/15 06:44:24;;;;;;;56.15;33.42;;;;;;;11.89;100.00;100570.03;5027295;28;20505;-58
2022/10/15 06:46:49;;;;;;;52.20;32.90;;;;;;;11.89;100.00;100570.03;5030638;28;20045;-59
2022/10/15 06:49:15;;;;;;;56.08;33.70;;;;;;;11.89;100.00;100567.38;5027685;28;20069;-57
2022/10/15 06:51:40;;;;;;;54.08;34.33;;;;;;;11.88;100.00;100565.72;5036138;28;20063;-60
2022/10/15 06:54:05;;;;;;;54.08;33.28;;;;;;;11.88;100.00;100576.34;5022428;28;20037;-57
2022/10/15 06:56:30;;;;;;;51.00;32.75;;;;;;;11.88;100.00;100570.22;5033240;28;20048;-56
2022/10/15 06:58:56;;;;;;;52.55;32.70;;;;;;;11.89;100.00;100570.03;5028036;28;20040;-60
2022/10/15 07:01:21;;;;;;;51.92;32.45;;;;;;;11.89;100.00;100571.88;5028451;28;20021;-58
2022/10/15 07:03:50;;;;;;;48.78;31.85;;;;;;;11.89;100.00;100567.38;5026377;28;20037;-57
2022/10/15 07:06:16;;;;;;;47.63;31.00;;;;;;;11.91;100.00;100565.38;5026858;28;20052;-63
2022/10/15 07:08:41;;;;;;;47.08;30.60;;;;;;;11.90;100.00;100569.00;5024495;28;20031;-64
2022/10/15 07:11:08;;;;;;;46.63;30.50;;;;;;;11.88;100.00;100571.03;5025172;28;20033;-63
2022/10/15 07:13:34;;;;;;;45.03;28.95;;;;;;;11.89;100.00;100577.19;5021976;28;20103;-62
2022/10/15 07:16:07;;;;;;;42.97;28.48;;;;;;;11.91;100.00;100589.28;5025061;28;20042;-64
2022/10/15 07:18:33;;;;;;;43.38;28.08;;;;;;;11.91;100.00;100591.94;5027825;28;20041;-63
2022/10/15 07:20:59;;;;;;;43.28;28.63;;;;;;;11.92;100.00;100582.97;5032083;28;20041;-63
2022/10/15 07:23:24;;;;;;;45.97;28.10;;;;;;;11.94;100.00;100570.31;5036206;28;20044;-62
2022/10/15 07:25:49;;;;;;;43.78;28.27;;;;;;;11.97;100.00;100562.00;5027595;28;20041;-61
2022/10/15 07:28:14;;;;;;;48.92;30.85;;;;;;;12.04;100.00;100564.00;5021148;28;20336;-60
2022/10/15 07:30:40;;;;;;;47.58;31.13;;;;;;;12.11;100.00;100555.09;5032817;28;20033;-63
2022/10/15 07:33:05;;;;;;;45.63;29.27;;;;;;;12.14;100.00;100545.94;5027351;28;20025;-62
2022/10/15 07:35:30;;;;;;;40.25;27.25;;;;;;;12.16;100.00;100549.28;5024016;28;20029;-62
2022/10/15 07:37:59;;;;;;;42.38;27.60;;;;;;;12.16;100.00;100546.59;5031150;28;20090;-63
2022/10/15 07:40:25;;;;;;;39.75;24.80;;;;;;;12.19;100.00;100545.44;5033656;28;20182;-62
2022/10/15 07:42:57;;;;;;;40.47;23.98;;;;;;;12.21;100.00;100544.25;5026301;28;20136;-62
2022/10/15 07:45:23;;;;;;;37.78;23.63;;;;;;;12.21;100.00;100544.25;5029249;28;20420;-63
2022/10/15 07:47:49;;;;;;;39.63;24.75;;;;;;;12.22;100.00;100550.38;5038184;28;20939;-61
2022/10/15 07:50:15;;;;;;;37.92;23.98;;;;;;;12.23;100.00;100547.53;5041697;28;20037;-60
2022/10/15 07:52:40;;;;;;;39.42;24.13;;;;;;;12.30;100.00;100537.03;5031094;28;20438;-64
2022/10/15 07:55:06;;;;;;;36.00;22.92;;;;;;;12.38;100.00;100538.75;5030874;28;20048;-62
2022/10/15 07:57:31;;;;;;;36.10;23.52;;;;;;;12.44;100.00;100532.72;5033957;28;20037;-61
2022/10/15 07:59:56;;;;;;;33.05;21.25;;;;;;;12.46;100.00;100541.34;5027406;28;20032;-61
2022/10/15 08:02:22;;;;;;;32.22;20.70;;;;;;;12.49;100.00;100532.19;5024718;28;20233;-63
2022/10/15 08:04:47;;;;;;;32.50;19.60;;;;;;;12.51;100.00;100533.66;5031422;28;20078;-60
2022/10/15 08:07:13;;;;;;;31.92;20.20;;;;;;;12.53;100.00;100535.31;5035360;28;20048;-63
2022/10/15 08:09:38;;;;;;;28.65;18.25;;;;;;;12.59;100.00;100534.56;5038718;28;20407;-63
2022/10/15 08:12:05;;;;;;;26.58;17.90;;;;;;;12.60;100.00;100521.09;5026490;28;20059;-60
2022/10/15 08:14:32;;;;;;;27.20;17.30;;;;;;;12.64;100.00;100522.38;5034592;28;20491;-61
2022/10/15 08:16:57;;;;;;;27.08;17.52;;;;;;;12.67;100.00;100515.84;5031577;28;20033;-63
2022/10/15 08:19:22;;;;;;;27.88;17.13;;;;;;;12.72;100.00;100518.81;5035891;28;20154;-64
2022/10/15 08:21:47;;;;;;;27.80;17.15;;;;;;;12.76;100.00;100522.75;5028128;28;20029;-61
2022/10/15 08:24:13;;;;;;;26.50;16.30;;;;;;;12.83;100.00;100514.03;5031911;28;20470;-62
2022/10/15 08:26:38;;;;;;;24.30;14.85;;;;;;;12.89;100.00;100518.63;5031003;28;20076;-62
2022/10/15 08:29:03;;;;;;;24.10;14.70;;;;;;;12.91;100.00;100521.91;5027933;28;20404;-64
2022/10/15 08:31:30;;;;;;;23.27;14.27;;;;;;;12.93;100.00;100519.06;5033117;28;20046;-62
2022/10/15 08:33:58;;;;;;;21.10;13.50;;;;;;;12.96;100.00;100530.16;5034397;28;20026;-61
2022/10/15 08:36:24;;;;;;;22.38;13.88;;;;;;;12.98;100.00;100522.00;5031112;28;20037;-61
2022/10/15 08:38:49;;;;;;;20.45;11.88;;;;;;;13.00;100.00;100515.50;5034666;28;20029;-61
2022/10/15 08:41:26;;;;;;;17.70;11.43;;;;;;;13.01;100.00;100506.50;5029721;28;20041;-61
2022/10/15 08:43:52;;;;;;;18.35;11.00;;;;;;;13.04;100.00;100499.97;5039681;28;20125;-60
2022/10/15 08:46:38;;;;;;;19.00;11.43;;;;;;;13.07;100.00;100494.25;5028589;28;20380;-61
2022/10/15 08:49:04;;;;;;;17.85;10.60;;;;;;;13.10;100.00;100498.38;5029831;28;20044;-62
2022/10/15 08:51:47;;;;;;;17.13;10.63;;;;;;;13.14;100.00;100494.34;5032058;28;20038;-61
2022/10/15 08:54:16;;;;;;;20.38;10.10;;;;;;;13.18;100.00;100492.97;5028157;28;20061;-57
2022/10/15 08:56:59;;;;;;;15.55;9.27;;;;;;;13.19;100.00;100492.75;5030934;28;20037;-57
2022/10/15 09:00:00;;;;;;;15.68;9.10;;;;;;;13.23;100.00;100487.88;5029185;28;20489;-59
2022/10/15 09:02:51;;;;;;;12.93;8.43;;;;;;;13.27;100.00;100483.84;5035578;28;20045;-60
2022/10/15 09:05:36;;;;;;;12.85;8.35;;;;;;;13.30;100.00;100470.16;5030333;28;20041;-58
2022/10/15 09:08:28;;;;;;;13.73;8.43;;;;;;;13.34;100.00;100472.44;5040260;28;20056;-58
2022/10/15 09:10:58;;;;;;;14.43;8.70;;;;;;;13.35;100.00;100468.75;5036592;28;20041;-58
2022/10/15 09:13:32;;;;;;;15.80;8.52;;;;;;;13.38;100.00;100473.72;5030476;28;20517;-60
2022/10/15 09:16:20;;;;;;;13.80;8.55;;;;;;;13.38;100.00;100468.38;5036213;28;20037;-59
2022/10/15 09:18:50;;;;;;;14.45;8.13;;;;;;;13.38;100.00;100463.06;5027723;28;20040;-57
2022/10/15 09:21:15;;;;;;;14.35;8.30;;;;;;;13.41;100.00;100465.34;5031394;28;20021;-57
2022/10/15 09:23:43;;;;;;;13.48;8.23;;;;;;;13.42;100.00;100469.66;5031050;28;20041;-59
2022/10/15 09:26:11;;;;;;;12.77;7.43;;;;;;;13.44;100.00;100462.31;5026771;28;20052;-61
2022/10/15 09:28:55;;;;;;;10.07;6.90;;;;;;;13.47;100.00;100463.81;5031899;28;20033;-58
2022/10/15 09:31:26;;;;;;;10.30;6.47;;;;;;;13.45;100.00;100470.13;5035077;28;20087;-58
2022/10/15 09:34:00;;;;;;;11.55;6.85;;;;;;;13.47;100.00;100467.28;5029635;28;20443;-58
2022/10/15 09:36:45;;;;;;;12.00;7.55;;;;;;;13.51;100.00;100473.06;5028628;28;20029;-59
2022/10/15 09:39:31;;;;;;;22.33;11.73;;;;;;;13.54;100.00;100462.03;5036104;28;20037;-58
2022/10/15 09:42:31;;;;;;;23.30;9.95;;;;;;;13.55;100.00;100459.16;5030293;28;20396;-60
2022/10/15 09:45:01;;;;;;;34.20;13.73;;;;;;;13.56;100.00;100454.66;5038680;28;20523;-58
2022/10/15 09:47:32;;;;;;;24.80;11.60;;;;;;;13.54;100.00;100452.19;5031006;28;20128;-59
2022/10/15 09:49:59;;;;;;;17.48;11.20;;;;;;;13.55;100.00;100453.00;5036318;28;20478;-58
2022/10/15 09:52:52;;;;;;;14.55;8.15;;;;;;;13.55;100.00;100456.50;5030503;28;20641;-57
2022/10/15 09:55:29;;;;;;;12.57;7.72;;;;;;;13.56;100.00;100451.97;5038143;28;20087;-60
2022/10/15 09:58:00;;;;;;;9.80;6.80;;;;;;;13.55;100.00;100448.50;5037331;28;20025;-58
2022/10/15 10:00:51;;;;;;;9.25;6.15;;;;;;;13.57;100.00;100438.47;5033262;28;20049;-61
2022/10/15 10:03:16;;;;;;;8.00;6.30;;;;;;;13.60;100.00;100445.28;5033065;28;21790;-58
2022/10/15 10:05:42;;;;;;;9.02;5.45;;;;;;;13.63;100.00;100444.06;5027533;28;20029;-61
2022/10/15 10:08:21;;;;;;;8.23;5.75;;;;;;;13.65;100.00;100440.19;5040746;28;20430;-58
2022/10/15 10:10:56;;;;;;;7.43;5.40;;;;;;;13.66;100.00;100443.69;5035084;28;20923;-58
2022/10/15 10:13:30;;;;;;;8.40;5.38;;;;;;;13.66;100.00;100438.38;5028471;28;20022;-58
2022/10/15 10:16:04;;;;;;;6.70;5.03;;;;;;;13.72;100.00;100440.25;5029765;28;20106;-58
2022/10/15 10:18:31;;;;;;;9.85;4.82;;;;;;;13.75;100.00;100437.19;5034015;28;20030;-58
2022/10/15 10:21:01;;;;;;;9.38;4.97;;;;;;;13.77;100.00;100432.50;5035651;28;20111;-57
2022/10/15 10:23:33;;;;;;;7.68;4.22;;;;;;;13.78;100.00;100444.81;5040906;28;20028;-58
2022/10/15 10:26:01;;;;;;;7.38;4.65;;;;;;;13.82;100.00;100431.94;5044395;28;20043;-58
2022/10/15 10:28:49;;;;;;;6.80;5.05;;;;;;;13.85;100.00;100437.69;5044418;28;20033;-60
2022/10/15 10:31:15;;;;;;;6.47;4.50;;;;;;;13.91;100.00;100437.94;5031031;28;20045;-57
2022/10/15 10:33:40;;;;;;;6.97;5.03;;;;;;;13.95;100.00;100436.53;5033562;28;20047;-57
2022/10/15 10:36:07;;;;;;;7.75;4.93;;;;;;;14.00;100.00;100431.44;5028355;28;20572;-60
2022/10/15 10:38:35;;;;;;;8.82;5.75;;;;;;;14.02;100.00;100437.41;5031558;28;20029;-58
2022/10/15 10:41:10;;;;;;;7.50;5.13;;;;;;;14.04;100.00;100451.38;5040210;28;20060;-57
2022/10/15 10:43:51;;;;;;;4.25;3.70;;;;;;;14.06;100.00;100438.66;5031588;28;20060;-57
2022/10/15 10:46:19;;;;;;;3.65;3.35;;;;;;;14.11;100.00;100446.06;5025593;28;20041;-57
2022/10/15 10:48:49;;;;;;;10.05;6.22;;;;;;;14.15;100.00;100446.53;5033389;28;20044;-60
2022/10/15 10:51:18;;;;;;;13.05;6.95;;;;;;;14.19;100.00;100439.75;5038424;28;20043;-58
2022/10/15 10:53:49;;;;;;;8.85;5.65;;;;;;;14.20;100.00;100444.91;5029770;28;20579;-58
2022/10/15 10:56:19;;;;;;;7.30;4.63;;;;;;;14.26;100.00;100443.28;5038750;28;20675;-57
2022/10/15 10:58:44;;;;;;;5.28;4.00;;;;;;;14.29;100.00;100428.75;5033978;28;20124;-58
2022/10/15 11:01:14;;;;;;;5.88;3.90;;;;;;;14.29;100.00;100432.25;5037677;28;20112;-57
2022/10/15 11:03:47;;;;;;;5.68;3.95;;;;;;;14.33;100.00;100422.84;5029687;28;20369;-57
2022/10/15 11:06:26;;;;;;;;;;;;;;;14.39;100.00;100427.38;5037638;28;20054;-58
2022/10/15 11:08:58;;;;;;;5.28;4.45;;;;;;;14.42;100.00;100428.00;5035627;28;19948;-57
2022/10/15 11:11:34;;;;;;;9.07;4.63;;;;;;;14.44;100.00;100423.28;5039871;28;20040;-59
2022/10/15 11:14:48;;;;;;;7.05;4.63;;;;;;;14.52;100.00;100415.13;5033954;28;20071;-59